Aérodrome :
LOGIN :

S'inscrire | Disclaimer

   EN    FR    IT 

 










Légende :    VFR   VFR Marginal   IFR   IFR Intensif   IFR Très Intensif
Visi : 
Plafond : 
>= 8 km
>= 3000ft
5 à 8 km
1000 à 3000 ft
1500m à 5 km
500 à 1000 ft
800 à 1500m
200 à 500 ft
< 800m
< 200 ft
Symboles :   Orages  Brouillard  Fortes neiges  Fortes précipitations  Vent > 20 kt
SIGMETs :   Divers  Orages  Givrage  Turbulence  Onde Orograph.  Cendres Volcan.






- Altitude de l'aérodrome : 1411 ft
- Code IATA : GVA


LSGG - Genève Cointrin

DERNIER METAR :
  • 100350Z AUTO 01005KT 320V040 CAVOK 03/M03 Q1025 NOSIG

METARs EXPIRÉS :
  • 100320Z AUTO 05005KT CAVOK 04/M02 Q1025 NOSIG
  • 100250Z AUTO 01006KT 9999 NCD 04/M02 Q1025 NOSIG
  • 100220Z AUTO 02004KT 310V070 9999 NCD 04/M01 Q1024 NOSIG
  • 100150Z AUTO VRB03KT 9999 FEW028 04/00 Q1024 NOSIG
  • 100120Z AUTO 36005KT 320V030 9999 -RA BKN025 05/00 Q1023 NOSIG

TAF TAF LSGG
Valide du 10 à 03h jusqu'au 11 à 09h UTC


100225Z 1003/1109 VRB03KT 9999 FEW030 TX06/1015Z TN02/1006Z TNM02/1106Z
PROB30
TEMPO 1004/1008 MIFG
BECMG 1008/1011 04008KT CAVOK
BECMG 1017/1019 VRB03KT
BECMG 1106/1109 9999 BKN080
ATIS : +41 22 417 40 81



MET'MAP, la Météo Aéronautique d'un coup d'oeil ! - Copyright ORBIFLY Décembre 2007 - Disclaimer

ORBIFLY MET'MAP TEAM :

Programmation & Développement : Alexandra Zaïnal
Sur une idée originale de : Baudouin d'Aumeries
Assistance à la programmation : Marc-Olivier Méhu
Soutien technique & logistique : Manuel Goepfert

Contact : metmap@orbifly.com




SOURCES & CREDITS :

   NOAA